Time;durP1;ratioP1;P1;durP2;ratioP2;P2;SDS_P1;SDS_P2;PMS_P1;PMS_P2;Temp;Humidity;BMP_temperature;BMP_pressure;BME280_temperature;BME280_humidity;BME280_pressure;Samples;Min_cycle;Max_cycle;Signal;HPM_P1;HPM_P2
2023/09/16 00:00:08;;;;;;;10.15;8.70;;;16.00;99.90;;;;;;5012448;28;20476;-64
2023/09/16 00:02:36;;;;;;;11.63;9.55;;;16.00;99.90;;;;;;5011306;28;20093;-66
2023/09/16 00:05:03;;;;;;;11.77;9.45;;;16.00;99.90;;;;;;5044789;28;20041;-65
2023/09/16 00:07:29;;;;;;;15.57;9.57;;;15.90;99.90;;;;;;5011781;28;20164;-65
2023/09/16 00:09:56;;;;;;;10.40;8.90;;;15.90;99.90;;;;;;5044224;28;20096;-66
2023/09/16 00:12:26;;;;;;;13.63;9.77;;;15.90;99.90;;;;;;5043633;28;20049;-64
2023/09/16 00:14:53;;;;;;;12.57;10.05;;;15.80;99.90;;;;;;5012473;28;20057;-66
2023/09/16 00:17:19;;;;;;;12.43;10.23;;;15.80;99.90;;;;;;5008415;28;20064;-64
2023/09/16 00:19:45;;;;;;;11.40;9.57;;;15.80;99.90;;;;;;5011598;28;20065;-64
2023/09/16 00:22:11;;;;;;;12.50;9.93;;;15.70;99.90;;;;;;5011513;28;20050;-65
2023/09/16 00:24:40;;;;;;;12.00;10.10;;;15.70;99.90;;;;;;5043769;28;20372;-64
2023/09/16 00:27:09;;;;;;;13.52;10.40;;;15.60;99.90;;;;;;5011242;28;20396;-64
2023/09/16 00:29:35;;;;;;;12.45;10.45;;;15.60;99.90;;;;;;5011444;28;20041;-63
2023/09/16 00:32:04;;;;;;;13.02;10.88;;;15.60;99.90;;;;;;5011464;28;20547;-64
2023/09/16 00:34:30;;;;;;;11.88;10.10;;;15.60;99.90;;;;;;5010976;28;20107;-67
2023/09/16 00:36:56;;;;;;;13.35;9.43;;;15.50;99.90;;;;;;5012151;28;20125;-65
2023/09/16 00:39:22;;;;;;;12.18;10.00;;;15.50;99.90;;;;;;4994546;28;20133;-64
2023/09/16 00:41:48;;;;;;;11.70;9.95;;;15.40;99.90;;;;;;5010335;28;20116;-64
2023/09/16 00:44:14;;;;;;;12.00;9.80;;;15.40;99.90;;;;;;5012215;28;20046;-65
2023/09/16 00:46:39;;;;;;;11.70;9.68;;;15.40;99.90;;;;;;5011024;28;20424;-63
2023/09/16 00:49:05;;;;;;;13.02;9.48;;;15.40;99.90;;;;;;5010453;28;20061;-64
2023/09/16 00:51:32;;;;;;;10.35;8.80;;;15.30;99.90;;;;;;5027559;28;20387;-66
2023/09/16 00:53:59;;;;;;;10.65;9.55;;;15.30;99.90;;;;;;5011828;28;20049;-64
2023/09/16 00:56:27;;;;;;;11.57;9.43;;;15.20;99.90;;;;;;5011763;28;20148;-64
2023/09/16 00:58:55;;;;;;;14.50;10.50;;;15.20;99.90;;;;;;5011393;28;20679;-64
2023/09/16 01:01:22;;;;;;;13.30;11.05;;;15.20;99.90;;;;;;5010462;28;20093;-63
2023/09/16 01:03:49;;;;;;;15.70;10.55;;;15.10;99.90;;;;;;5011606;28;20057;-64
2023/09/16 01:06:19;;;;;;;13.95;10.65;;;15.10;99.90;;;;;;5011521;28;20050;-64
2023/09/16 01:08:46;;;;;;;11.75;10.30;;;15.10;99.90;;;;;;5013677;28;20107;-64
2023/09/16 01:11:12;;;;;;;13.75;10.73;;;15.10;99.90;;;;;;5014968;28;20202;-65
2023/09/16 01:13:39;;;;;;;12.23;10.88;;;15.10;99.90;;;;;;5015511;28;20506;-65
2023/09/16 01:16:27;;;;;;;12.85;11.55;;;15.10;99.90;;;;;;5015965;28;20057;-65
2023/09/16 01:19:03;;;;;;;13.68;11.23;;;15.00;99.90;;;;;;5014937;28;20124;-65
2023/09/16 01:21:29;;;;;;;12.98;10.95;;;14.90;99.90;;;;;;5015462;28;20120;-65
2023/09/16 01:24:17;;;;;;;15.88;12.05;;;15.00;99.90;;;;;;5015357;28;20395;-64
2023/09/16 01:26:43;;;;;;;16.45;12.43;;;14.90;99.90;;;;;;5015175;28;20054;-65
2023/09/16 01:29:09;;;;;;;12.55;11.25;;;14.90;99.90;;;;;;5014215;28;20038;-65
2023/09/16 01:31:36;;;;;;;13.70;12.30;;;14.90;99.90;;;;;;5014070;28;20046;-65
2023/09/16 01:34:13;;;;;;;15.50;12.35;;;14.80;99.90;;;;;;5044687;28;20545;-66
2023/09/16 01:36:41;;;;;;;14.50;11.95;;;14.80;99.90;;;;;;5014969;28;20103;-66
2023/09/16 01:39:08;;;;;;;15.88;12.73;;;14.80;99.90;;;;;;5015361;28;20049;-64
2023/09/16 01:41:35;;;;;;;15.75;13.02;;;14.80;99.90;;;;;;5014088;28;20057;-64
2023/09/16 01:44:03;;;;;;;15.85;12.98;;;14.80;99.90;;;;;;5014601;28;20045;-64
2023/09/16 01:46:28;;;;;;;13.48;11.98;;;14.70;99.90;;;;;;5015249;28;20392;-64
2023/09/16 01:48:54;;;;;;;14.15;12.20;;;14.70;99.90;;;;;;5029976;28;20045;-64
2023/09/16 01:51:20;;;;;;;15.15;12.93;;;14.70;99.90;;;;;;5014661;28;20139;-64
2023/09/16 01:53:45;;;;;;;15.32;13.20;;;14.70;99.90;;;;;;5014232;28;20053;-65
2023/09/16 01:56:11;;;;;;;14.15;12.48;;;14.70;99.90;;;;;;5013685;28;20052;-64
2023/09/16 01:58:37;;;;;;;16.77;13.43;;;14.60;99.90;;;;;;5015335;28;20038;-65
2023/09/16 02:01:11;;;;;;;14.52;12.90;;;14.60;99.90;;;;;;5013036;28;20045;-65
2023/09/16 02:03:37;;;;;;;15.52;13.20;;;14.60;99.90;;;;;;5013884;28;20042;-65
2023/09/16 02:06:05;;;;;;;14.07;12.55;;;14.60;99.90;;;;;;5014198;28;20579;-64
2023/09/16 02:08:30;;;;;;;16.50;12.77;;;14.60;99.90;;;;;;5013815;28;20037;-64
2023/09/16 02:10:56;;;;;;;16.70;13.75;;;14.50;99.90;;;;;;5014243;28;20048;-64
2023/09/16 02:13:22;;;;;;;15.48;12.95;;;14.50;99.90;;;;;;5013628;28;20081;-64
2023/09/16 02:15:47;;;;;;;18.50;12.73;;;14.50;99.90;;;;;;5013521;28;20049;-65
2023/09/16 02:18:13;;;;;;;14.82;13.13;;;14.50;99.90;;;;;;5014742;28;20107;-64
2023/09/16 02:20:39;;;;;;;16.73;13.32;;;14.50;99.90;;;;;;5013843;28;20531;-63
2023/09/16 02:23:05;;;;;;;13.70;12.10;;;14.40;99.90;;;;;;5012808;28;20139;-65
2023/09/16 02:25:34;;;;;;;18.08;12.25;;;14.50;99.90;;;;;;5014736;28;20046;-64
2023/09/16 02:28:00;;;;;;;15.32;13.05;;;14.40;99.90;;;;;;5012502;28;20116;-65
2023/09/16 02:30:25;;;;;;;15.60;13.70;;;14.40;99.90;;;;;;4997399;28;20491;-65
2023/09/16 02:32:52;;;;;;;18.30;13.63;;;14.40;99.90;;;;;;5014222;28;20046;-64
2023/09/16 02:35:17;;;;;;;14.98;13.32;;;14.40;99.90;;;;;;5014154;28;20045;-64
2023/09/16 02:37:43;;;;;;;14.85;13.13;;;14.40;99.90;;;;;;5014533;28;20459;-64
2023/09/16 02:40:09;;;;;;;15.70;13.75;;;14.30;99.90;;;;;;5013578;28;20038;-64
2023/09/16 02:42:35;;;;;;;15.23;13.23;;;14.30;99.90;;;;;;5019643;28;20056;-65
2023/09/16 02:45:01;;;;;;;16.38;13.30;;;14.30;99.90;;;;;;5017704;28;20415;-64
2023/09/16 02:47:26;;;;;;;15.35;13.75;;;14.30;99.90;;;;;;5014190;28;20045;-64
2023/09/16 02:49:52;;;;;;;14.48;13.02;;;14.30;99.90;;;;;;5012497;28;20092;-65
2023/09/16 02:52:20;;;;;;;14.82;13.23;;;14.20;99.90;;;;;;5013784;28;20046;-64
2023/09/16 02:54:46;;;;;;;14.77;13.18;;;14.20;99.90;;;;;;5013944;28;20058;-65
2023/09/16 02:57:11;;;;;;;15.57;12.63;;;14.20;99.90;;;;;;5013500;28;20042;-64
2023/09/16 02:59:37;;;;;;;14.30;12.85;;;14.20;99.90;;;;;;5013865;28;20049;-64
2023/09/16 03:02:03;;;;;;;13.95;12.45;;;14.10;99.90;;;;;;5013487;28;20058;-65
2023/09/16 03:04:29;;;;;;;15.55;13.02;;;14.10;99.90;;;;;;5013296;28;20132;-65
2023/09/16 03:06:55;;;;;;;14.75;13.25;;;14.10;99.90;;;;;;5012655;28;20045;-65
2023/09/16 03:09:20;;;;;;;15.60;12.85;;;14.10;99.90;;;;;;5013470;28;20049;-66
2023/09/16 03:11:47;;;;;;;14.93;13.30;;;14.00;99.90;;;;;;5013415;28;20067;-64
2023/09/16 03:14:12;;;;;;;15.05;12.63;;;14.00;99.90;;;;;;5011798;28;20054;-64
2023/09/16 03:16:38;;;;;;;16.30;13.20;;;14.00;99.90;;;;;;5012807;28;20049;-64
2023/09/16 03:19:04;;;;;;;16.80;14.13;;;14.00;99.90;;;;;;5044853;28;20077;-65
2023/09/16 03:21:29;;;;;;;14.40;12.93;;;14.00;99.90;;;;;;5013158;28;20049;-64
2023/09/16 03:23:55;;;;;;;17.05;15.25;;;14.00;99.90;;;;;;5013541;28;20046;-67
2023/09/16 03:26:21;;;;;;;16.67;14.18;;;14.00;99.90;;;;;;4995455;28;20054;-65
2023/09/16 03:28:47;;;;;;;17.27;14.15;;;14.00;99.90;;;;;;5012353;28;20049;-64
2023/09/16 03:31:14;;;;;;;16.58;14.40;;;14.00;99.90;;;;;;5012024;28;20038;-64
2023/09/16 03:33:40;;;;;;;16.67;14.63;;;14.00;99.90;;;;;;5012978;28;20496;-64
2023/09/16 03:36:06;;;;;;;15.57;14.07;;;14.00;99.90;;;;;;5011830;28;20056;-64
2023/09/16 03:38:34;;;;;;;16.02;14.32;;;14.00;99.90;;;;;;5012943;28;20046;-64
2023/09/16 03:41:00;;;;;;;17.13;14.13;;;14.00;99.90;;;;;;5011578;28;20084;-65
2023/09/16 03:43:27;;;;;;;15.10;13.23;;;14.00;99.90;;;;;;5011812;28;20077;-64
2023/09/16 03:45:53;;;;;;;15.65;13.90;;;14.00;99.90;;;;;;5002071;28;20117;-64
2023/09/16 03:48:19;;;;;;;18.42;14.30;;;14.00;99.90;;;;;;5010832;28;20181;-63
2023/09/16 03:50:46;;;;;;;16.08;14.40;;;14.00;99.90;;;;;;5012013;28;20050;-64
2023/09/16 03:53:12;;;;;;;17.27;14.57;;;13.90;99.90;;;;;;5012630;28;20046;-64
2023/09/16 03:55:38;;;;;;;15.70;14.10;;;13.90;99.90;;;;;;5012267;28;20539;-64
2023/09/16 03:58:03;;;;;;;16.05;14.43;;;13.90;99.90;;;;;;5010971;28;20121;-64
2023/09/16 04:00:29;;;;;;;20.65;14.80;;;13.90;99.90;;;;;;5012969;28;20080;-64
2023/09/16 04:02:55;;;;;;;16.73;15.00;;;13.80;99.90;;;;;;4995563;28;20061;-64
2023/09/16 04:05:21;;;;;;;18.25;14.60;;;13.80;99.90;;;;;;5012475;28;20041;-64
2023/09/16 04:07:47;;;;;;;17.48;15.02;;;13.80;99.90;;;;;;5011124;28;20415;-64
2023/09/16 04:10:13;;;;;;;18.95;14.80;;;13.80;99.90;;;;;;5012115;28;20077;-65
2023/09/16 04:12:39;;;;;;;16.83;15.07;;;13.80;99.90;;;;;;5011595;28;20128;-65
2023/09/16 04:15:05;;;;;;;16.02;13.02;;;13.70;99.90;;;;;;5011311;28;20488;-66
2023/09/16 04:17:31;;;;;;;15.70;14.05;;;13.70;99.90;;;;;;5012820;28;20042;-64
2023/09/16 04:19:57;;;;;;;16.70;14.25;;;13.60;99.90;;;;;;4994575;28;20038;-64
2023/09/16 04:22:23;;;;;;;15.30;13.70;;;13.60;99.90;;;;;;5011170;28;20061;-63
2023/09/16 04:24:48;;;;;;;15.82;14.13;;;13.60;99.90;;;;;;5011494;28;20038;-64
2023/09/16 04:27:14;;;;;;;16.45;14.18;;;13.60;99.90;;;;;;5012064;28;20045;-64
2023/09/16 04:29:40;;;;;;;15.60;13.18;;;13.60;99.90;;;;;;5011052;28;20236;-64
2023/09/16 04:32:06;;;;;;;17.85;15.43;;;13.60;99.90;;;;;;5011786;28;20076;-65
2023/09/16 04:34:32;;;;;;;16.35;14.25;;;13.60;99.90;;;;;;5010983;28;20045;-64
2023/09/16 04:36:59;;;;;;;16.00;13.82;;;13.60;99.90;;;;;;5010933;28;20485;-64
2023/09/16 04:39:26;;;;;;;17.60;15.25;;;13.50;99.90;;;;;;5010641;28;20127;-64
2023/09/16 04:41:55;;;;;;;16.38;14.68;;;13.60;99.90;;;;;;5010171;28;20113;-64
2023/09/16 04:44:22;;;;;;;16.52;14.75;;;13.60;99.90;;;;;;5011440;28;20049;-64
2023/09/16 04:46:53;;;;;;;16.58;14.70;;;13.50;99.90;;;;;;5009084;28;20056;-63
2023/09/16 04:49:19;;;;;;;18.15;14.38;;;13.50;99.90;;;;;;5011654;28;20042;-64
2023/09/16 04:51:45;;;;;;;15.82;14.23;;;13.50;99.90;;;;;;5009967;28;20050;-64
2023/09/16 04:54:11;;;;;;;16.73;14.95;;;13.40;99.90;;;;;;4977101;28;20054;-65
2023/09/16 04:56:37;;;;;;;18.77;15.50;;;13.50;99.90;;;;;;4996981;28;20050;-65
2023/09/16 04:59:03;;;;;;;17.25;15.45;;;13.40;99.90;;;;;;4999685;28;20053;-66
2023/09/16 05:01:29;;;;;;;18.85;16.00;;;13.40;99.90;;;;;;4994574;28;20058;-65
2023/09/16 05:03:55;;;;;;;17.95;16.15;;;13.40;99.90;;;;;;4998168;28;20046;-64
2023/09/16 05:06:21;;;;;;;17.73;15.30;;;13.40;99.90;;;;;;5002046;28;20487;-64
2023/09/16 05:08:48;;;;;;;18.17;16.23;;;13.40;99.90;;;;;;5011865;28;20069;-64
2023/09/16 05:11:14;;;;;;;17.42;15.60;;;13.40;99.90;;;;;;5009794;28;20049;-63
2023/09/16 05:13:40;;;;;;;17.08;15.13;;;13.40;99.90;;;;;;5010691;28;20451;-63
2023/09/16 05:16:07;;;;;;;17.88;15.80;;;13.40;99.90;;;;;;5010414;28;20058;-64
2023/09/16 05:18:33;;;;;;;18.00;14.90;;;13.40;99.90;;;;;;5010169;28;20128;-64
2023/09/16 05:20:59;;;;;;;17.73;15.60;;;13.40;99.90;;;;;;5010713;28;20061;-63
2023/09/16 05:23:25;;;;;;;18.13;16.15;;;13.40;99.90;;;;;;5025461;28;20125;-64
2023/09/16 05:25:51;;;;;;;17.17;15.38;;;13.40;99.90;;;;;;5011035;28;20104;-64
2023/09/16 05:28:17;;;;;;;16.10;14.40;;;13.40;99.90;;;;;;5010985;28;20443;-64
2023/09/16 05:30:44;;;;;;;17.38;15.60;;;13.40;99.90;;;;;;5010636;28;20054;-64
2023/09/16 05:33:10;;;;;;;17.38;15.25;;;13.50;99.90;;;;;;5011105;28;20041;-64
2023/09/16 05:35:38;;;;;;;17.10;15.00;;;13.50;99.90;;;;;;5010769;28;20049;-64
2023/09/16 05:38:04;;;;;;;16.23;14.63;;;13.50;99.90;;;;;;5011265;28;20042;-65
2023/09/16 05:40:30;;;;;;;18.50;14.73;;;13.50;99.90;;;;;;5009690;28;20048;-64
2023/09/16 05:42:56;;;;;;;15.65;14.02;;;13.50;99.90;;;;;;5011081;28;20117;-65
2023/09/16 05:45:22;;;;;;;16.27;14.30;;;13.50;99.90;;;;;;5010622;28;20508;-66
2023/09/16 05:47:51;;;;;;;15.85;13.98;;;13.60;99.90;;;;;;5010940;28;20399;-65
2023/09/16 05:50:17;;;;;;;16.65;14.90;;;13.60;99.90;;;;;;5042824;28;20089;-67
2023/09/16 05:52:43;;;;;;;16.50;14.77;;;13.90;99.90;;;;;;5009904;28;20084;-65
2023/09/16 05:55:09;;;;;;;14.43;13.00;;;14.20;99.90;;;;;;5012395;28;20049;-64
2023/09/16 05:57:35;;;;;;;15.68;13.10;;;14.50;99.90;;;;;;5013274;28;20053;-64
2023/09/16 06:00:01;;;;;;;15.73;14.00;;;14.70;99.90;;;;;;5013901;28;20050;-63
2023/09/16 06:02:27;;;;;;;17.08;13.95;;;14.70;99.90;;;;;;5013409;28;20093;-64
2023/09/16 06:04:53;;;;;;;17.15;14.57;;;14.60;99.90;;;;;;5026440;28;20038;-65
2023/09/16 06:07:18;;;;;;;17.15;14.40;;;14.60;99.90;;;;;;5014809;28;20057;-67
2023/09/16 06:09:44;;;;;;;17.35;15.55;;;14.60;99.90;;;;;;5014586;28;20398;-65
2023/09/16 06:12:10;;;;;;;19.20;16.92;;;14.60;99.90;;;;;;5011257;28;20042;-65
2023/09/16 06:14:36;;;;;;;18.83;16.77;;;14.50;99.90;;;;;;5012289;28;20045;-65
2023/09/16 06:17:02;;;;;;;17.73;15.85;;;14.50;99.90;;;;;;5014657;28;20044;-65
2023/09/16 06:19:28;;;;;;;18.02;16.10;;;14.50;99.90;;;;;;5014097;28;20152;-69
2023/09/16 06:21:55;;;;;;;20.27;17.95;;;14.50;99.90;;;;;;4993533;28;20095;-64
2023/09/16 06:24:21;;;;;;;22.33;17.60;;;14.50;99.90;;;;;;5013933;28;20046;-67
2023/09/16 06:26:47;;;;;;;22.08;18.83;;;14.50;99.90;;;;;;5029740;28;20049;-64
2023/09/16 06:29:13;;;;;;;20.80;17.58;;;14.50;99.90;;;;;;5014314;28;20041;-67
2023/09/16 06:31:39;;;;;;;19.65;17.33;;;14.60;99.90;;;;;;5013733;28;20129;-65
2023/09/16 06:34:05;;;;;;;19.52;17.42;;;14.60;99.90;;;;;;5013738;28;20046;-65
2023/09/16 06:36:31;;;;;;;21.98;18.45;;;14.70;99.90;;;;;;5045298;28;20050;-65
2023/09/16 06:38:59;;;;;;;21.13;18.45;;;14.70;99.90;;;;;;5013136;28;20046;-65
2023/09/16 06:41:25;;;;;;;21.40;17.73;;;14.80;99.90;;;;;;5002181;28;20049;-67
2023/09/16 06:43:51;;;;;;;20.48;17.73;;;14.80;99.90;;;;;;5008069;28;20116;-64
2023/09/16 06:46:20;;;;;;;22.02;19.15;;;14.90;99.90;;;;;;5014303;28;20038;-65
2023/09/16 06:48:46;;;;;;;22.27;18.42;;;15.00;99.90;;;;;;5013537;28;20065;-65
2023/09/16 06:51:11;;;;;;;24.73;19.40;;;15.10;99.90;;;;;;5013894;28;20042;-65
2023/09/16 06:53:37;;;;;;;20.52;17.40;;;15.20;99.90;;;;;;5044818;28;20049;-65
2023/09/16 06:56:03;;;;;;;20.73;18.63;;;15.30;99.90;;;;;;5013644;28;20054;-64
2023/09/16 06:58:29;;;;;;;22.70;17.42;;;15.30;99.90;;;;;;5013187;28;20044;-65
2023/09/16 07:00:55;;;;;;;20.15;17.98;;;15.40;99.90;;;;;;5013440;28;20423;-64
2023/09/16 07:03:21;;;;;;;20.33;17.98;;;15.50;99.90;;;;;;5012944;28;20056;-65
2023/09/16 07:05:47;;;;;;;21.17;17.88;;;15.60;99.90;;;;;;5042744;28;20127;-65
2023/09/16 07:08:18;;;;;;;21.63;18.02;;;15.80;99.90;;;;;;5012507;28;20049;-67
2023/09/16 07:10:44;;;;;;;19.70;17.63;;;16.10;99.90;;;;;;5011778;28;20056;-67
2023/09/16 07:13:09;;;;;;;19.00;16.02;;;16.60;99.90;;;;;;5008551;28;20050;-66
2023/09/16 07:15:35;;;;;;;17.25;15.27;;;17.00;99.90;;;;;;5009278;28;20069;-67
2023/09/16 07:18:02;;;;;;;18.38;15.70;;;17.20;99.90;;;;;;5044916;28;20372;-67
2023/09/16 07:20:27;;;;;;;18.90;15.93;;;17.20;99.90;;;;;;5011844;28;20502;-67
2023/09/16 07:22:55;;;;;;;18.23;16.27;;;17.20;99.90;;;;;;5011677;28;20057;-67
2023/09/16 07:25:22;;;;;;;21.08;16.55;;;17.20;99.90;;;;;;5011429;28;20377;-67
2023/09/16 07:27:47;;;;;;;21.23;16.40;;;17.20;99.90;;;;;;5012322;28;20046;-67
2023/09/16 07:30:16;;;;;;;17.10;15.25;;;17.30;99.90;;;;;;5013087;28;20069;-69
2023/09/16 07:32:42;;;;;;;20.30;15.65;;;17.20;99.90;;;;;;5028803;28;20057;-67
2023/09/16 07:35:08;;;;;;;19.52;15.93;;;17.30;99.90;;;;;;5013057;28;20046;-68
2023/09/16 07:37:34;;;;;;;17.35;15.35;;;17.40;99.90;;;;;;5012212;28;20518;-68
2023/09/16 07:39:59;;;;;;;17.17;15.38;;;17.60;99.90;;;;;;5012451;28;20056;-68
2023/09/16 07:42:25;;;;;;;17.65;14.73;;;17.70;99.90;;;;;;5034576;28;20056;-67
2023/09/16 07:44:51;;;;;;;16.73;14.38;;;18.10;99.90;;;;;;5011172;28;20092;-66
2023/09/16 07:47:17;;;;;;;14.57;13.05;;;19.00;99.90;;;;;;5012520;28;20041;-67
2023/09/16 07:49:42;;;;;;;16.45;12.57;;;20.10;99.90;;;;;;5027936;28;20077;-66
2023/09/16 07:52:08;;;;;;;16.30;12.50;;;21.00;99.90;;;;;;5012715;28;20433;-68
2023/09/16 07:54:34;;;;;;;16.58;13.15;;;21.90;99.90;;;;;;5011512;28;20061;-72
2023/09/16 07:57:00;;;;;;;17.48;12.73;;;22.70;99.90;;;;;;5011150;28;20054;-68
2023/09/16 07:59:29;;;;;;;14.95;11.68;;;23.60;99.90;;;;;;5011151;28;20038;-68
2023/09/16 08:01:54;;;;;;;12.90;11.23;;;24.30;99.90;;;;;;4994712;28;20062;-66
2023/09/16 08:04:20;;;;;;;11.82;10.57;;;24.90;99.90;;;;;;5012250;28;20125;-65
2023/09/16 08:06:49;;;;;;;12.85;10.60;;;25.70;99.90;;;;;;5010564;28;20095;-66
2023/09/16 08:09:16;;;;;;;13.40;10.70;;;26.30;99.90;;;;;;5011894;28;20407;-66
2023/09/16 08:11:42;;;;;;;12.95;10.10;;;26.80;99.90;;;;;;5010502;28;20041;-66
2023/09/16 08:14:08;;;;;;;11.57;10.30;;;27.30;99.90;;;;;;5011402;28;20502;-67
2023/09/16 08:16:34;;;;;;;12.07;9.65;;;27.80;99.90;;;;;;5027590;28;20053;-64
2023/09/16 08:19:00;;;;;;;12.10;9.48;;;28.20;99.90;;;;;;5010925;28;20045;-66
2023/09/16 08:21:26;;;;;;;11.02;9.90;;;28.60;99.30;;;;;;5011142;28;20479;-66
2023/09/16 08:23:51;;;;;;;12.75;9.55;;;29.00;98.90;;;;;;5011732;28;20407;-66
2023/09/16 08:26:17;;;;;;;10.70;9.05;;;29.30;98.60;;;;;;5043617;28;20455;-65
2023/09/16 08:28:43;;;;;;;9.90;8.60;;;29.50;98.00;;;;;;5011594;28;20061;-64
2023/09/16 08:31:08;;;;;;;11.27;9.18;;;29.70;97.40;;;;;;5011436;28;20427;-66
2023/09/16 08:33:34;;;;;;;11.75;8.68;;;29.90;96.90;;;;;;5012172;28;20120;-65
2023/09/16 08:36:00;;;;;;;15.18;9.13;;;30.00;96.60;;;;;;5009845;28;20210;-65
2023/09/16 08:38:25;;;;;;;13.25;9.48;;;30.20;96.50;;;;;;5011389;28;20542;-65
2023/09/16 08:41:07;;;;;;;11.98;8.95;;;30.30;96.10;;;;;;5011237;28;20121;-64
2023/09/16 08:43:39;;;;;;;11.80;9.00;;;30.30;94.90;;;;;;5006549;28;20507;-65
2023/09/16 08:46:09;;;;;;;10.85;8.05;;;30.20;94.70;;;;;;5043462;28;20054;-66
2023/09/16 08:48:38;;;;;;;10.00;8.05;;;30.20;94.90;;;;;;5011715;28;20042;-65
2023/09/16 08:51:05;;;;;;;10.23;8.65;;;30.30;95.20;;;;;;5010981;28;20038;-66
2023/09/16 08:53:36;;;;;;;10.13;7.85;;;30.60;95.10;;;;;;5011034;28;20045;-67
2023/09/16 08:56:02;;;;;;;10.43;7.70;;;30.70;94.50;;;;;;5006279;28;20121;-66
2023/09/16 08:58:32;;;;;;;9.45;8.20;;;30.90;94.60;;;;;;5011994;28;20046;-67
2023/09/16 09:00:58;;;;;;;12.45;8.18;;;31.00;94.40;;;;;;5042824;28;20403;-66
2023/09/16 09:03:24;;;;;;;8.93;7.70;;;31.00;94.40;;;;;;5027568;28;20045;-66
2023/09/16 09:05:52;;;;;;;10.88;7.43;;;31.10;94.40;;;;;;5010470;28;20065;-66
2023/09/16 09:08:18;;;;;;;9.43;7.70;;;31.10;94.30;;;;;;5011426;28;20488;-66
2023/09/16 09:10:45;;;;;;;9.63;8.05;;;31.00;94.10;;;;;;5010621;28;20049;-66
2023/09/16 09:13:13;;;;;;;10.27;7.75;;;31.10;94.30;;;;;;5011287;28;20511;-66
2023/09/16 09:15:47;;;;;;;8.77;7.38;;;30.90;94.10;;;;;;5027000;28;20387;-65
2023/09/16 09:18:17;;;;;;;8.60;7.00;;;30.30;94.30;;;;;;5009375;28;20076;-68
2023/09/16 09:20:42;;;;;;;9.63;6.78;;;29.40;94.80;;;;;;5034937;28;20050;-66
2023/09/16 09:23:08;;;;;;;8.45;6.57;;;28.80;95.40;;;;;;5008073;28;20105;-67
2023/09/16 09:25:36;;;;;;;8.45;6.70;;;28.40;95.50;;;;;;5026309;28;20631;-65
2023/09/16 09:28:04;;;;;;;8.27;6.00;;;27.90;95.50;;;;;;5010890;28;20045;-66
2023/09/16 09:30:31;;;;;;;7.18;5.65;;;27.40;95.80;;;;;;5002089;28;20104;-65
2023/09/16 09:32:58;;;;;;;7.95;5.88;;;26.90;96.00;;;;;;5014662;28;20042;-65
2023/09/16 09:35:28;;;;;;;9.43;5.53;;;26.60;96.50;;;;;;5014825;28;20399;-65
2023/09/16 09:37:55;;;;;;;8.57;5.90;;;26.40;96.50;;;;;;5013819;28;20137;-63
2023/09/16 09:40:23;;;;;;;8.30;6.00;;;26.20;96.70;;;;;;5011478;28;20037;-65
2023/09/16 09:42:55;;;;;;;7.28;5.40;;;26.20;97.00;;;;;;5014898;28;20046;-64
2023/09/16 09:45:23;;;;;;;8.98;5.43;;;26.20;97.00;;;;;;5015082;28;20070;-64
2023/09/16 09:47:50;;;;;;;7.60;6.10;;;26.30;96.80;;;;;;5015318;28;20082;-65
2023/09/16 09:50:18;;;;;;;8.68;6.47;;;26.20;96.80;;;;;;5016632;28;20084;-64
2023/09/16 09:52:48;;;;;;;8.02;6.60;;;25.90;96.90;;;;;;5014992;28;20517;-64
2023/09/16 09:55:21;;;;;;;10.48;6.80;;;25.60;97.00;;;;;;5014271;28;20045;-64
2023/09/16 09:57:49;;;;;;;7.93;5.90;;;25.50;97.30;;;;;;5013712;28;20120;-65
2023/09/16 10:00:17;;;;;;;8.02;6.30;;;25.30;97.30;;;;;;5014435;28;20324;-65
2023/09/16 10:02:44;;;;;;;8.38;5.72;;;25.40;97.70;;;;;;5046337;28;20054;-65
2023/09/16 10:05:23;;;;;;;7.18;6.05;;;25.50;97.50;;;;;;5045962;28;20045;-66
2023/09/16 10:07:50;;;;;;;10.30;6.70;;;25.60;97.30;;;;;;5014882;28;20041;-65
2023/09/16 10:10:24;;;;;;;8.70;6.45;;;25.60;97.60;;;;;;5046134;28;20060;-65
2023/09/16 10:12:55;;;;;;;8.65;6.20;;;25.50;97.60;;;;;;5013872;28;20431;-65
2023/09/16 10:15:29;;;;;;;7.18;5.82;;;25.50;97.80;;;;;;5013558;28;20050;-65
2023/09/16 10:17:56;;;;;;;7.22;5.65;;;25.40;97.60;;;;;;5014229;28;20041;-68
2023/09/16 10:20:23;;;;;;;7.53;5.47;;;25.50;97.30;;;;;;5014852;28;20080;-65
2023/09/16 10:22:50;;;;;;;7.60;5.20;;;25.60;97.30;;;;;;5014642;28;20129;-65
2023/09/16 10:25:19;;;;;;;7.32;6.35;;;25.60;97.10;;;;;;5017083;28;21058;-65
2023/09/16 10:27:52;;;;;;;7.53;5.47;;;25.50;97.20;;;;;;5014343;28;20046;-65
2023/09/16 10:30:19;;;;;;;6.73;5.70;;;25.50;97.40;;;;;;5013807;28;20693;-65
2023/09/16 10:32:45;;;;;;;8.05;5.63;;;25.50;97.60;;;;;;5014253;28;20380;-65
2023/09/16 10:35:11;;;;;;;10.40;6.95;;;25.60;97.70;;;;;;5013545;28;20376;-67
2023/09/16 10:37:39;;;;;;;8.93;6.35;;;25.80;97.60;;;;;;5013367;28;20042;-65
2023/09/16 10:40:06;;;;;;;8.07;5.63;;;25.70;97.80;;;;;;5005473;28;20046;-65
2023/09/16 10:42:36;;;;;;;9.63;6.45;;;25.60;97.90;;;;;;4998123;28;20046;-65
2023/09/16 10:45:03;;;;;;;11.07;5.65;;;25.50;97.80;;;;;;4994157;28;20087;-66
2023/09/16 10:47:31;;;;;;;9.32;5.72;;;25.40;97.80;;;;;;4997816;28;20534;-65
2023/09/16 10:49:57;;;;;;;8.55;5.38;;;25.40;98.00;;;;;;4998555;28;20517;-66
2023/09/16 10:52:38;;;;;;;9.27;5.70;;;25.40;97.90;;;;;;5006481;28;20042;-66
2023/09/16 10:55:15;;;;;;;7.40;5.40;;;25.50;97.40;;;;;;5029320;28;20042;-66
2023/09/16 10:58:11;;;;;;;6.97;5.65;;;25.50;97.40;;;;;;5003544;28;20415;-66
2023/09/16 11:00:44;;;;;;;7.88;5.35;;;25.40;96.80;;;;;;4971980;28;20077;-65
2023/09/16 11:03:16;;;;;;;10.18;5.53;;;25.40;97.50;;;;;;4998427;28;20054;-66
2023/09/16 11:05:42;;;;;;;7.32;5.25;;;25.40;97.70;;;;;;4999816;28;20129;-65
2023/09/16 11:08:08;;;;;;;8.65;5.10;;;25.40;97.90;;;;;;4998767;28;20130;-66
2023/09/16 11:10:35;;;;;;;7.93;4.70;;;25.50;97.70;;;;;;5005925;28;20053;-65
2023/09/16 11:13:02;;;;;;;8.60;5.15;;;25.50;97.70;;;;;;5004958;28;20045;-67
2023/09/16 11:15:35;;;;;;;7.78;6.03;;;25.60;97.50;;;;;;5025544;28;20496;-65
2023/09/16 11:18:07;;;;;;;8.18;5.53;;;25.50;97.10;;;;;;5002850;28;20125;-64
2023/09/16 11:20:36;;;;;;;8.23;5.03;;;25.60;97.10;;;;;;5005927;28;20080;-66
2023/09/16 11:23:03;;;;;;;7.22;4.85;;;25.60;97.50;;;;;;5002312;28;20130;-66
2023/09/16 11:25:37;;;;;;;8.00;5.07;;;25.50;97.50;;;;;;5000529;28;20046;-66
2023/09/16 11:28:06;;;;;;;8.90;4.88;;;25.60;97.20;;;;;;5040834;28;20038;-66
2023/09/16 11:30:32;;;;;;;5.93;3.92;;;25.60;97.00;;;;;;5005207;28;20045;-66
2023/09/16 11:32:58;;;;;;;6.45;4.50;;;25.50;97.30;;;;;;5040632;28;20049;-66
2023/09/16 11:35:28;;;;;;;7.43;4.40;;;25.60;97.30;;;;;;4999346;28;20242;-66
2023/09/16 11:37:54;;;;;;;5.95;3.63;;;25.50;96.90;;;;;;5040292;28;20068;-66
2023/09/16 11:40:31;;;;;;;9.35;3.83;;;25.50;96.80;;;;;;5011791;28;20038;-66
2023/09/16 11:42:58;;;;;;;8.13;4.30;;;25.50;96.60;;;;;;5011266;28;20042;-69
2023/09/16 11:45:25;;;;;;;7.55;4.63;;;25.60;96.60;;;;;;5012672;28;20049;-69
2023/09/16 11:47:51;;;;;;;7.97;4.57;;;25.80;96.70;;;;;;5012474;28;20033;-68
2023/09/16 11:50:25;;;;;;;7.43;4.50;;;25.90;96.70;;;;;;5011943;28;20054;-69
2023/09/16 11:52:51;;;;;;;8.43;5.38;;;25.80;96.80;;;;;;5012452;28;20107;-68
2023/09/16 11:55:17;;;;;;;10.32;4.85;;;25.80;97.30;;;;;;5045009;28;20082;-69
2023/09/16 11:57:45;;;;;;;8.02;4.47;;;25.80;97.10;;;;;;5013270;28;20532;-69
2023/09/16 12:00:12;;;;;;;7.63;4.43;;;25.80;96.70;;;;;;5011707;28;20037;-70
2023/09/16 12:02:38;;;;;;;6.00;3.78;;;25.70;96.50;;;;;;5043884;28;20145;-69
2023/09/16 12:05:04;;;;;;;6.30;3.65;;;25.60;96.60;;;;;;5028523;28;20107;-68
2023/09/16 12:07:31;;;;;;;7.35;3.58;;;25.50;96.80;;;;;;5011401;28;20482;-69
2023/09/16 12:09:59;;;;;;;6.70;3.67;;;25.40;96.50;;;;;;5012034;28;20071;-69
2023/09/16 12:12:28;;;;;;;6.30;3.83;;;25.50;96.10;;;;;;5011883;28;20049;-68
2023/09/16 12:14:55;;;;;;;5.45;3.65;;;25.50;95.80;;;;;;5011894;28;20046;-69
2023/09/16 12:17:23;;;;;;;6.63;3.80;;;25.60;96.00;;;;;;5011665;28;20064;-68
2023/09/16 12:19:53;;;;;;;6.53;3.53;;;25.40;96.00;;;;;;5011632;28;20104;-69
2023/09/16 12:22:19;;;;;;;7.55;4.57;;;25.40;96.30;;;;;;5010900;28;20459;-68
2023/09/16 12:24:46;;;;;;;8.50;4.53;;;25.40;96.30;;;;;;5012707;28;20050;-68
2023/09/16 12:27:12;;;;;;;7.55;4.32;;;25.30;96.30;;;;;;5011176;28;20133;-74
2023/09/16 12:29:38;;;;;;;8.82;4.03;;;25.30;96.30;;;;;;5010162;28;20057;-68
2023/09/16 12:32:10;;;;;;;7.72;4.00;;;25.40;96.60;;;;;;5007601;28;20045;-69